createdAt,value
2018-04-14T00:00:14.472Z,17.45
2018-04-14T00:00:48.391Z,14.25
2018-04-14T00:01:22.257Z,13.27
2018-04-14T00:01:56.162Z,13.30
2018-04-14T00:02:30.172Z,13.60
2018-04-14T00:03:04.207Z,13.30
2018-04-14T00:03:38.103Z,13.52
2018-04-14T00:04:11.971Z,13.60
2018-04-14T00:04:45.830Z,14.25
2018-04-14T00:06:00.184Z,16.10
2018-04-14T00:06:34.056Z,14.15
2018-04-14T00:07:07.919Z,14.35
2018-04-14T00:07:41.982Z,14.30
2018-04-14T00:08:15.866Z,15.55
2018-04-14T00:08:49.861Z,15.57
2018-04-14T00:09:23.762Z,17.10
2018-04-14T00:09:57.864Z,15.57
2018-04-14T00:10:31.750Z,15.93
2018-04-14T00:11:05.640Z,17.10
2018-04-14T00:11:39.547Z,17.48
2018-04-14T00:12:13.410Z,18.23
2018-04-14T00:12:47.570Z,17.45
2018-04-14T00:13:21.443Z,16.83
2018-04-14T00:13:55.342Z,18.75
2018-04-14T00:14:29.206Z,19.17
2018-04-14T00:15:03.080Z,18.70
2018-04-14T00:15:36.947Z,19.50
2018-04-14T00:16:10.812Z,19.10
2018-04-14T00:16:44.699Z,20.08
2018-04-14T00:17:18.624Z,17.40
2018-04-14T00:17:52.495Z,21.77
2018-04-14T00:18:26.363Z,20.73
2018-04-14T00:19:00.236Z,20.33
2018-04-14T00:19:34.092Z,21.40
2018-04-14T00:20:07.955Z,21.42
2018-04-14T00:20:41.828Z,21.25
2018-04-14T00:21:15.699Z,21.87
2018-04-14T00:21:49.562Z,20.40
2018-04-14T00:22:23.437Z,21.12
2018-04-14T00:22:57.553Z,20.80
2018-04-14T00:23:31.429Z,21.17
2018-04-14T00:24:05.310Z,22.10
2018-04-14T00:24:39.182Z,20.10
2018-04-14T00:25:13.063Z,23.05
2018-04-14T00:25:47.068Z,19.95
2018-04-14T00:26:20.937Z,20.27
2018-04-14T00:26:54.814Z,21.10
2018-04-14T00:27:28.713Z,20.27
2018-04-14T00:28:02.571Z,20.50
2018-04-14T00:28:36.441Z,22.23
2018-04-14T00:29:10.342Z,21.25
2018-04-14T00:29:44.208Z,21.17
2018-04-14T00:30:18.080Z,21.95
2018-04-14T00:30:52.325Z,20.45
2018-04-14T00:31:26.174Z,20.75
2018-04-14T00:32:00.059Z,20.92
2018-04-14T00:32:33.912Z,22.33
2018-04-14T00:33:07.977Z,23.10
2018-04-14T00:33:41.844Z,20.25
2018-04-14T00:34:15.721Z,20.98
2018-04-14T00:34:49.604Z,21.27
2018-04-14T00:35:23.475Z,21.60
2018-04-14T00:35:57.353Z,19.08
2018-04-14T00:36:31.208Z,21.12
2018-04-14T00:37:05.076Z,19.58
2018-04-14T00:37:38.945Z,21.23
2018-04-14T00:38:12.819Z,19.67
2018-04-14T00:38:46.696Z,21.00
2018-04-14T00:39:20.593Z,20.05
2018-04-14T00:39:54.460Z,21.77
2018-04-14T00:40:28.333Z,18.02
2018-04-14T00:41:02.207Z,19.37
2018-04-14T00:41:36.075Z,19.77
2018-04-14T00:42:09.934Z,17.67
2018-04-14T00:42:43.801Z,17.87
2018-04-14T00:43:17.664Z,19.45
2018-04-14T00:43:52.253Z,18.65
2018-04-14T00:44:26.142Z,18.77
2018-04-14T00:45:00.003Z,20.00
2018-04-14T00:45:33.879Z,18.45
2018-04-14T00:46:07.745Z,19.30
2018-04-14T00:46:41.772Z,19.55
2018-04-14T00:47:15.634Z,19.10
2018-04-14T00:47:49.549Z,19.95
2018-04-14T00:48:23.432Z,19.45
2018-04-14T00:48:57.315Z,19.80
2018-04-14T00:49:31.200Z,19.33
2018-04-14T00:50:05.391Z,20.12
2018-04-14T00:50:39.265Z,19.80
2018-04-14T00:51:13.131Z,20.05
2018-04-14T00:51:46.999Z,20.42
2018-04-14T00:52:21.783Z,20.70
2018-04-14T00:52:55.635Z,19.50
2018-04-14T00:53:35.416Z,19.87
2018-04-14T00:54:09.381Z,19.27
2018-04-14T00:54:43.262Z,20.70
2018-04-14T00:55:17.129Z,19.52
2018-04-14T00:55:50.999Z,19.60
2018-04-14T00:56:24.863Z,21.50
2018-04-14T00:56:58.720Z,21.73
2018-04-14T00:57:32.746Z,20.15
2018-04-14T00:58:06.603Z,20.30
2018-04-14T00:58:40.467Z,23.15
2018-04-14T00:59:14.436Z,20.05
2018-04-14T00:59:48.324Z,20.58
2018-04-14T01:00:22.179Z,20.60
2018-04-14T01:00:56.118Z,19.20
2018-04-14T01:01:29.985Z,19.27
2018-04-14T01:02:03.877Z,19.33
2018-04-14T01:02:37.731Z,19.85
2018-04-14T01:03:11.601Z,18.42
2018-04-14T01:03:45.695Z,19.90
2018-04-14T01:04:19.560Z,20.98
2018-04-14T01:04:53.439Z,20.23
2018-04-14T01:05:27.307Z,19.70
2018-04-14T01:06:01.169Z,19.62
2018-04-14T01:06:35.069Z,19.67
2018-04-14T01:07:08.959Z,20.67
2018-04-14T01:07:42.818Z,19.75
2018-04-14T01:08:16.680Z,19.62
2018-04-14T01:08:50.571Z,19.25
2018-04-14T01:09:24.441Z,20.58
2018-04-14T01:09:58.859Z,20.00
2018-04-14T01:10:32.728Z,21.20
2018-04-14T01:11:06.592Z,21.65
2018-04-14T01:11:40.466Z,20.00
2018-04-14T01:12:14.367Z,19.83
2018-04-14T01:12:48.228Z,19.92
2018-04-14T01:13:22.088Z,17.80
2018-04-14T01:13:55.946Z,21.00
2018-04-14T01:14:29.802Z,20.52
2018-04-14T01:15:03.706Z,19.17
2018-04-14T01:15:37.704Z,20.05
2018-04-14T01:16:12.466Z,20.05
2018-04-14T01:16:46.321Z,20.02
2018-04-14T01:17:20.992Z,19.30
2018-04-14T01:17:54.855Z,19.42
2018-04-14T01:18:29.508Z,20.95
2018-04-14T01:19:05.645Z,18.30
2018-04-14T01:19:41.947Z,20.05
2018-04-14T01:20:17.074Z,18.95
2018-04-14T01:20:53.865Z,19.67
2018-04-14T01:21:27.751Z,21.00
2018-04-14T01:22:02.400Z,19.98
2018-04-14T01:22:36.260Z,20.30
2018-04-14T01:23:11.395Z,20.23
2018-04-14T01:23:45.256Z,21.55
2018-04-14T01:24:20.061Z,19.40
2018-04-14T01:24:53.928Z,20.50
2018-04-14T01:25:27.817Z,18.80
2018-04-14T01:26:01.682Z,20.05
2018-04-14T01:26:36.411Z,19.00
2018-04-14T01:27:10.286Z,21.87
2018-04-14T01:27:44.153Z,19.67
2018-04-14T01:28:18.030Z,20.42
2018-04-14T01:28:51.909Z,19.70
2018-04-14T01:29:26.608Z,18.98
2018-04-14T01:30:00.485Z,19.33
2018-04-14T01:30:34.369Z,20.73
2018-04-14T01:31:08.353Z,19.77
2018-04-14T01:31:42.211Z,20.85
2018-04-14T01:32:16.083Z,18.05
2018-04-14T01:32:50.028Z,19.80
2018-04-14T01:33:23.889Z,20.17
2018-04-14T01:33:57.756Z,21.58
2018-04-14T01:34:31.617Z,20.15
2018-04-14T01:35:05.480Z,19.20
2018-04-14T01:35:39.369Z,18.83
2018-04-14T01:36:13.243Z,18.30
2018-04-14T01:36:47.107Z,19.75
2018-04-14T01:37:20.966Z,18.48
2018-04-14T01:37:54.819Z,19.27
2018-04-14T01:38:28.682Z,20.00
2018-04-14T01:39:02.670Z,20.05
2018-04-14T01:39:36.544Z,20.05
2018-04-14T01:40:10.407Z,19.37
2018-04-14T01:40:44.288Z,21.37
2018-04-14T01:41:18.159Z,20.00
2018-04-14T01:41:52.021Z,18.25
2018-04-14T01:42:25.877Z,19.30
2018-04-14T01:42:59.780Z,18.60
2018-04-14T01:43:33.659Z,19.45
2018-04-14T01:44:07.530Z,19.30
2018-04-14T01:44:41.396Z,19.92
2018-04-14T01:45:15.319Z,20.02
2018-04-14T01:45:49.194Z,20.73
2018-04-14T01:46:23.075Z,19.20
2018-04-14T01:46:56.940Z,20.05
2018-04-14T01:47:30.829Z,19.87
2018-04-14T01:48:04.704Z,20.05
2018-04-14T01:48:38.579Z,19.67
2018-04-14T01:49:12.456Z,19.35
2018-04-14T01:49:46.575Z,20.05
2018-04-14T01:50:20.478Z,19.30
2018-04-14T01:50:54.423Z,19.58
2018-04-14T01:51:28.296Z,19.30
2018-04-14T01:52:02.189Z,19.15
2018-04-14T01:52:36.064Z,20.10
2018-04-14T01:53:09.950Z,20.50
2018-04-14T01:53:43.807Z,20.70
2018-04-14T01:54:17.671Z,19.70
2018-04-14T01:54:51.550Z,20.48
2018-04-14T01:55:25.422Z,20.25
2018-04-14T01:55:59.307Z,20.10
2018-04-14T01:56:33.184Z,18.98
2018-04-14T01:57:07.059Z,20.50
2018-04-14T01:57:41.137Z,21.08
2018-04-14T01:58:15.008Z,21.35
2018-04-14T01:58:48.867Z,21.30
2018-04-14T01:59:22.727Z,20.75
2018-04-14T01:59:56.614Z,19.80
2018-04-14T02:00:30.501Z,22.17
2018-04-14T02:01:04.585Z,20.92
2018-04-14T02:01:38.471Z,20.58
2018-04-14T02:02:12.331Z,21.40
2018-04-14T02:02:46.193Z,20.77
2018-04-14T02:03:20.068Z,22.30
2018-04-14T02:03:53.943Z,19.20
2018-04-14T02:04:27.860Z,20.85
2018-04-14T02:05:01.739Z,21.55
2018-04-14T02:05:35.616Z,19.80
2018-04-14T02:06:09.505Z,20.40
2018-04-14T02:06:43.371Z,20.62
2018-04-14T02:07:17.539Z,19.62
2018-04-14T02:07:51.410Z,19.48
2018-04-14T02:08:25.284Z,20.95
2018-04-14T02:08:59.155Z,21.85
2018-04-14T02:09:33.033Z,22.20
2018-04-14T02:10:06.910Z,22.75
2018-04-14T02:10:40.772Z,20.12
2018-04-14T02:11:14.663Z,19.67
2018-04-14T02:11:48.516Z,20.58
2018-04-14T02:12:22.404Z,21.35
2018-04-14T02:12:56.264Z,21.60
2018-04-14T02:13:30.125Z,22.02
2018-04-14T02:14:04.018Z,22.25
2018-04-14T02:14:37.881Z,22.15
2018-04-14T02:15:11.752Z,19.92
2018-04-14T02:15:45.623Z,20.65
2018-04-14T02:16:19.494Z,21.85
2018-04-14T02:16:53.552Z,19.87
2018-04-14T02:17:27.426Z,20.83
2018-04-14T02:18:01.297Z,20.70
2018-04-14T02:18:35.162Z,19.95
2018-04-14T02:19:09.027Z,19.60
2018-04-14T02:19:42.914Z,20.98
2018-04-14T02:20:16.821Z,20.48
2018-04-14T02:20:50.688Z,21.73
2018-04-14T02:21:24.581Z,20.10
2018-04-14T02:21:58.612Z,19.52
2018-04-14T02:22:32.488Z,19.87
2018-04-14T02:23:06.356Z,20.05
2018-04-14T02:23:40.215Z,19.70
2018-04-14T02:24:14.110Z,20.70
2018-04-14T02:24:47.964Z,22.35
2018-04-14T02:25:21.835Z,20.20
2018-04-14T02:25:55.702Z,21.92
2018-04-14T02:26:29.596Z,21.05
2018-04-14T02:27:03.460Z,20.85
2018-04-14T02:27:37.327Z,21.17
2018-04-14T02:28:11.198Z,20.60
2018-04-14T02:28:45.064Z,20.90
2018-04-14T02:29:18.930Z,22.20
2018-04-14T02:29:52.817Z,21.58
2018-04-14T02:30:26.680Z,21.60
2018-04-14T02:31:00.830Z,21.90
2018-04-14T02:31:34.714Z,21.55
2018-04-14T02:32:08.579Z,21.60
2018-04-14T02:32:42.438Z,21.42
2018-04-14T02:33:16.717Z,20.92
2018-04-14T02:33:50.588Z,21.40
2018-04-14T02:34:24.443Z,23.02
2018-04-14T02:34:58.608Z,22.92
2018-04-14T02:35:32.478Z,22.67
2018-04-14T02:36:06.354Z,23.30
2018-04-14T02:36:40.253Z,22.75
2018-04-14T02:37:14.151Z,24.23
2018-04-14T02:37:48.015Z,22.42
2018-04-14T02:38:21.901Z,23.73
2018-04-14T02:38:55.769Z,24.27
2018-04-14T02:39:29.666Z,24.60
2018-04-14T02:40:03.538Z,26.48
2018-04-14T02:40:37.407Z,26.50
2018-04-14T02:41:11.287Z,25.17
2018-04-14T02:41:45.189Z,24.63
2018-04-14T02:42:19.051Z,24.70
2018-04-14T02:42:52.903Z,26.10
2018-04-14T02:43:26.767Z,27.48
2018-04-14T02:44:00.639Z,25.48
2018-04-14T02:44:34.508Z,27.50
2018-04-14T02:45:08.377Z,25.88
2018-04-14T02:45:42.252Z,25.15
2018-04-14T02:46:16.132Z,25.45
2018-04-14T02:46:50.032Z,25.35
2018-04-14T02:47:23.898Z,26.27
2018-04-14T02:47:57.748Z,27.05
2018-04-14T02:48:31.793Z,26.52
2018-04-14T02:49:05.656Z,27.27
2018-04-14T02:49:39.537Z,28.80
2018-04-14T02:50:13.478Z,27.80
2018-04-14T02:50:47.348Z,27.52
2018-04-14T02:51:21.234Z,28.00
2018-04-14T02:51:55.127Z,29.92
2018-04-14T02:52:28.983Z,32.22
2018-04-14T02:53:02.847Z,30.00
2018-04-14T02:53:36.712Z,29.85
2018-04-14T02:54:10.569Z,30.17
2018-04-14T02:54:44.428Z,29.55
2018-04-14T02:55:18.269Z,28.98
2018-04-14T02:55:52.124Z,28.52
2018-04-14T02:56:26.009Z,30.02
2018-04-14T02:56:59.897Z,29.10
2018-04-14T02:57:33.762Z,30.92
2018-04-14T02:58:07.631Z,31.30
2018-04-14T02:58:41.524Z,32.30
2018-04-14T02:59:15.403Z,26.83
2018-04-14T02:59:49.259Z,31.40
2018-04-14T03:00:23.131Z,30.33
2018-04-14T03:00:57.018Z,28.85
2018-04-14T03:01:30.893Z,27.20
2018-04-14T03:02:04.788Z,27.92
2018-04-14T03:02:38.657Z,30.77
2018-04-14T03:03:12.524Z,27.25
2018-04-14T03:03:46.398Z,29.17
2018-04-14T03:04:20.256Z,27.42
2018-04-14T03:04:54.125Z,29.25
2018-04-14T03:05:27.988Z,30.23
2018-04-14T03:06:01.865Z,29.42
2018-04-14T03:06:35.735Z,28.90
2018-04-14T03:07:09.595Z,30.17
2018-04-14T03:07:43.451Z,27.80
2018-04-14T03:08:17.612Z,27.40
2018-04-14T03:08:51.493Z,28.20
2018-04-14T03:09:25.369Z,28.17
2018-04-14T03:09:59.243Z,28.90
2018-04-14T03:10:33.113Z,29.75
2018-04-14T03:11:06.988Z,28.15
2018-04-14T03:11:40.873Z,25.92
2018-04-14T03:12:14.760Z,27.70
2018-04-14T03:12:48.774Z,28.02
2018-04-14T03:13:22.629Z,29.17
2018-04-14T03:13:56.511Z,28.30
2018-04-14T03:14:30.563Z,28.95
2018-04-14T03:15:04.436Z,28.10
2018-04-14T03:15:38.291Z,28.70
2018-04-14T03:16:12.154Z,28.75
2018-04-14T03:16:46.155Z,28.30
2018-04-14T03:17:20.144Z,27.05
2018-04-14T03:17:54.015Z,28.08
2018-04-14T03:18:27.896Z,29.42
2018-04-14T03:19:01.792Z,30.12
2018-04-14T03:19:35.677Z,29.87
2018-04-14T03:20:09.553Z,29.27
2018-04-14T03:20:43.430Z,28.27
2018-04-14T03:21:17.297Z,30.37
2018-04-14T03:21:51.152Z,30.55
2018-04-14T03:22:25.049Z,28.50
2018-04-14T03:22:58.911Z,29.50
2018-04-14T03:23:32.787Z,27.92
2018-04-14T03:24:06.678Z,28.73
2018-04-14T03:24:40.555Z,29.23
2018-04-14T03:25:14.472Z,30.33
2018-04-14T03:25:48.335Z,29.77
2018-04-14T03:26:22.208Z,29.42
2018-04-14T03:26:56.081Z,30.58
2018-04-14T03:27:29.976Z,31.60
2018-04-14T03:28:03.839Z,31.23
2018-04-14T03:28:37.703Z,29.40
2018-04-14T03:29:11.556Z,29.00
2018-04-14T03:29:45.426Z,28.55
2018-04-14T03:30:19.294Z,29.27
2018-04-14T03:30:53.184Z,29.20
2018-04-14T03:31:27.060Z,28.38
2018-04-14T03:32:00.936Z,27.60
2018-04-14T03:32:34.807Z,28.95
2018-04-14T03:33:08.669Z,27.35
2018-04-14T03:33:42.550Z,28.25
2018-04-14T03:34:16.411Z,28.27
2018-04-14T03:34:50.280Z,28.80
2018-04-14T03:35:24.144Z,28.30
2018-04-14T03:35:58.028Z,27.35
2018-04-14T03:36:31.883Z,26.90
2018-04-14T03:37:05.766Z,24.45
2018-04-14T03:37:39.636Z,25.83
2018-04-14T03:38:13.500Z,25.27
2018-04-14T03:38:47.364Z,26.20
2018-04-14T03:39:21.218Z,23.92
2018-04-14T03:39:55.085Z,22.55
2018-04-14T03:40:28.960Z,26.00
2018-04-14T03:41:02.827Z,23.58
2018-04-14T03:41:36.698Z,24.75
2018-04-14T03:42:10.554Z,23.48
2018-04-14T03:42:44.437Z,24.10
2018-04-14T03:43:18.402Z,23.35
2018-04-14T03:43:52.312Z,25.52
2018-04-14T03:44:26.194Z,23.20
2018-04-14T03:45:00.067Z,22.50
2018-04-14T03:45:33.945Z,23.83
2018-04-14T03:46:07.845Z,22.30
2018-04-14T03:46:41.704Z,22.87
2018-04-14T03:47:15.576Z,21.40
2018-04-14T03:47:49.464Z,21.67
2018-04-14T03:48:23.348Z,22.17
2018-04-14T03:48:57.214Z,21.48
2018-04-14T03:49:31.090Z,22.52
2018-04-14T03:50:04.948Z,22.87
2018-04-14T03:50:38.832Z,23.20
2018-04-14T03:51:12.700Z,22.10
2018-04-14T03:51:46.572Z,22.35
2018-04-14T03:52:20.523Z,22.62
2018-04-14T03:52:54.407Z,23.90
2018-04-14T03:53:28.264Z,24.20
2018-04-14T03:54:02.151Z,22.02
2018-04-14T03:54:36.023Z,23.83
2018-04-14T03:55:09.897Z,23.12
2018-04-14T03:55:43.789Z,24.70
2018-04-14T03:56:17.672Z,23.70
2018-04-14T03:56:51.766Z,23.35
2018-04-14T03:57:25.628Z,24.12
2018-04-14T03:57:59.519Z,24.40
2018-04-14T03:58:33.392Z,23.67
2018-04-14T03:59:07.266Z,25.52
2018-04-14T03:59:41.166Z,23.70
2018-04-14T04:00:15.026Z,23.55
2018-04-14T04:00:48.886Z,24.33
2018-04-14T04:01:22.744Z,24.05
2018-04-14T04:01:56.618Z,24.40
2018-04-14T04:02:30.475Z,23.60
2018-04-14T04:03:04.358Z,23.75
2018-04-14T04:03:38.217Z,24.05
2018-04-14T04:04:12.084Z,24.52
2018-04-14T04:04:45.946Z,26.87
2018-04-14T04:05:19.828Z,26.20
2018-04-14T04:05:53.703Z,26.90
2018-04-14T04:06:27.584Z,26.42
2018-04-14T04:07:01.481Z,24.80
2018-04-14T04:07:35.340Z,24.52
2018-04-14T04:08:09.211Z,25.48
2018-04-14T04:08:43.082Z,27.10
2018-04-14T04:09:16.962Z,27.40
2018-04-14T04:09:50.833Z,26.67
2018-04-14T04:10:24.687Z,27.95
2018-04-14T04:10:58.545Z,27.25
2018-04-14T04:11:32.401Z,27.75
2018-04-14T04:12:06.261Z,28.33
2018-04-14T04:12:40.128Z,29.23
2018-04-14T04:13:14.059Z,32.15
2018-04-14T04:13:47.928Z,29.63
2018-04-14T04:14:21.817Z,31.90
2018-04-14T04:14:55.714Z,31.12
2018-04-14T04:15:29.577Z,32.67
2018-04-14T04:16:03.454Z,32.28
2018-04-14T04:16:37.329Z,33.17
2018-04-14T04:17:11.217Z,33.53
2018-04-14T04:17:45.202Z,33.13
2018-04-14T04:18:24.795Z,33.65
2018-04-14T04:19:04.388Z,32.75
2018-04-14T04:19:44.042Z,33.80
2018-04-14T04:20:23.700Z,35.47
2018-04-14T04:21:03.334Z,34.17
2018-04-14T04:21:42.912Z,36.17
2018-04-14T04:22:22.574Z,37.55
2018-04-14T04:23:02.290Z,36.72
2018-04-14T04:23:41.969Z,37.83
2018-04-14T04:24:21.549Z,37.50
2018-04-14T04:25:01.171Z,38.72
2018-04-14T04:25:40.836Z,39.65
2018-04-14T04:26:14.712Z,37.30
2018-04-14T04:26:48.697Z,38.90
2018-04-14T04:27:22.565Z,39.20
2018-04-14T04:27:56.438Z,39.65
2018-04-14T04:28:30.325Z,40.08
2018-04-14T04:29:04.229Z,39.75
2018-04-14T04:29:38.160Z,39.80
2018-04-14T04:30:12.023Z,40.33
2018-04-14T04:30:45.885Z,41.30
2018-04-14T04:31:19.769Z,41.78
2018-04-14T04:31:53.669Z,40.92
2018-04-14T04:32:27.564Z,40.72
2018-04-14T04:33:01.448Z,41.15
2018-04-14T04:33:35.344Z,40.97
2018-04-14T04:34:09.247Z,42.85
2018-04-14T04:34:43.109Z,41.40
2018-04-14T04:35:16.965Z,41.92
2018-04-14T04:35:50.844Z,40.50
2018-04-14T04:36:24.723Z,43.50
2018-04-14T04:36:58.681Z,41.80
2018-04-14T04:37:32.611Z,42.42
2018-04-14T04:38:06.492Z,42.28
2018-04-14T04:38:40.363Z,43.15
2018-04-14T04:39:14.455Z,43.80
2018-04-14T04:39:48.322Z,40.35
2018-04-14T04:40:22.268Z,42.38
2018-04-14T04:40:56.135Z,41.97
2018-04-14T04:41:30.038Z,41.75
2018-04-14T04:42:03.905Z,43.03
2018-04-14T04:42:37.786Z,41.22
2018-04-14T04:43:11.678Z,42.00
2018-04-14T04:43:45.612Z,42.20
2018-04-14T04:44:19.657Z,43.03
2018-04-14T04:44:53.533Z,44.10
2018-04-14T04:45:27.403Z,44.42
2018-04-14T04:46:01.408Z,45.40
2018-04-14T04:46:35.271Z,43.78
2018-04-14T04:47:09.152Z,41.80
2018-04-14T04:47:43.097Z,43.35
2018-04-14T04:48:17.000Z,43.17
2018-04-14T04:48:51.040Z,43.58
2018-04-14T04:49:24.874Z,41.65
2018-04-14T04:49:59.323Z,42.95
2018-04-14T04:50:33.278Z,42.97
2018-04-14T04:51:07.159Z,40.75
2018-04-14T04:51:41.057Z,42.03
2018-04-14T04:52:15.015Z,41.92
2018-04-14T04:52:48.890Z,41.13
2018-04-14T04:53:22.752Z,41.42
2018-04-14T04:53:56.688Z,41.60
2018-04-14T04:54:30.580Z,39.78
2018-04-14T04:55:04.460Z,42.30
2018-04-14T04:55:38.329Z,38.63
2018-04-14T04:56:12.217Z,41.03
2018-04-14T04:56:46.142Z,38.47
2018-04-14T04:57:20.017Z,40.88
2018-04-14T04:57:53.883Z,38.25
2018-04-14T04:58:27.759Z,39.88
2018-04-14T04:59:01.655Z,38.50
2018-04-14T04:59:35.547Z,40.03
2018-04-14T05:00:09.453Z,39.92
2018-04-14T05:00:43.313Z,38.30
2018-04-14T05:01:17.188Z,40.90
2018-04-14T05:01:51.059Z,39.05
2018-04-14T05:02:24.944Z,35.88
2018-04-14T05:02:58.812Z,37.05
2018-04-14T05:03:32.690Z,36.97
2018-04-14T05:04:06.564Z,36.53
2018-04-14T05:04:40.462Z,35.47
2018-04-14T05:05:14.345Z,38.50
2018-04-14T05:05:48.225Z,37.03
2018-04-14T05:06:22.091Z,37.10
2018-04-14T05:06:55.975Z,37.47
2018-04-14T05:07:29.835Z,35.42
2018-04-14T05:08:03.709Z,35.83
2018-04-14T05:08:37.576Z,35.33
2018-04-14T05:09:11.462Z,34.78
2018-04-14T05:09:45.354Z,36.25
2018-04-14T05:10:19.227Z,37.95
2018-04-14T05:10:53.140Z,37.42
2018-04-14T05:11:27.056Z,35.58
2018-04-14T05:12:00.927Z,35.58
2018-04-14T05:12:34.799Z,35.85
2018-04-14T05:13:08.661Z,34.78
2018-04-14T05:13:42.541Z,35.00
2018-04-14T05:14:16.398Z,36.42
2018-04-14T05:14:50.300Z,36.33
2018-04-14T05:15:24.187Z,35.63
2018-04-14T05:15:58.067Z,35.70
2018-04-14T05:16:31.922Z,36.05
2018-04-14T05:17:05.818Z,35.53
2018-04-14T05:17:39.701Z,36.00
2018-04-14T05:18:13.591Z,35.45
2018-04-14T05:18:47.498Z,34.15
2018-04-14T05:19:21.368Z,35.33
2018-04-14T05:19:55.244Z,35.75
2018-04-14T05:20:29.122Z,36.90
2018-04-14T05:21:02.996Z,35.00
2018-04-14T05:21:36.852Z,35.95
2018-04-14T05:22:10.720Z,35.28
2018-04-14T05:22:44.607Z,37.38
2018-04-14T05:23:18.486Z,34.38
2018-04-14T05:23:52.351Z,34.58
2018-04-14T05:24:26.232Z,36.03
2018-04-14T05:25:00.117Z,35.50
2018-04-14T05:25:33.978Z,34.45
2018-04-14T05:26:07.845Z,34.88
2018-04-14T05:26:41.718Z,34.88
2018-04-14T05:27:15.607Z,33.83
2018-04-14T05:27:49.473Z,33.78
2018-04-14T05:28:23.345Z,33.70
2018-04-14T05:28:57.213Z,34.72
2018-04-14T05:29:31.062Z,33.75
2018-04-14T05:30:04.943Z,33.45
2018-04-14T05:30:38.796Z,33.95
2018-04-14T05:31:12.742Z,33.08
2018-04-14T05:31:46.618Z,33.83
2018-04-14T05:32:20.484Z,33.38
2018-04-14T05:32:54.356Z,35.92
2018-04-14T05:33:28.313Z,33.35
2018-04-14T05:34:02.207Z,34.38
2018-04-14T05:34:36.099Z,34.83
2018-04-14T05:35:10.704Z,33.35
2018-04-14T05:35:44.583Z,34.17
2018-04-14T05:36:18.462Z,36.60
2018-04-14T05:36:52.327Z,35.85
2018-04-14T05:37:26.280Z,35.50
2018-04-14T05:38:00.150Z,34.28
2018-04-14T05:38:34.012Z,35.25
2018-04-14T05:39:07.865Z,33.33
2018-04-14T05:39:41.763Z,35.20
2018-04-14T05:40:15.646Z,35.38
2018-04-14T05:40:49.527Z,33.60
2018-04-14T05:41:23.387Z,33.80
2018-04-14T05:41:57.249Z,36.08
2018-04-14T05:42:31.125Z,34.50
2018-04-14T05:43:05.006Z,33.67
2018-04-14T05:43:38.922Z,35.03
2018-04-14T05:44:12.835Z,37.05
2018-04-14T05:44:46.705Z,34.88
2018-04-14T05:45:20.583Z,35.03
2018-04-14T05:45:54.456Z,33.38
2018-04-14T05:46:28.333Z,33.35
2018-04-14T05:47:02.274Z,36.80
2018-04-14T05:47:36.147Z,35.00
2018-04-14T05:48:10.041Z,32.05
2018-04-14T05:48:43.899Z,33.10
2018-04-14T05:49:17.778Z,33.45
2018-04-14T05:49:51.671Z,34.83
2018-04-14T05:50:25.564Z,33.08
2018-04-14T05:50:59.501Z,35.88
2018-04-14T05:51:33.328Z,34.08
2018-04-14T05:52:07.207Z,34.22
2018-04-14T05:52:41.078Z,35.17
2018-04-14T05:53:14.993Z,36.70
2018-04-14T05:53:48.848Z,35.38
2018-04-14T05:54:22.727Z,35.35
2018-04-14T05:54:56.620Z,36.72
2018-04-14T05:55:30.512Z,34.67
2018-04-14T05:56:04.380Z,36.00
2018-04-14T05:56:38.260Z,37.55
2018-04-14T05:57:12.134Z,37.05
2018-04-14T05:57:45.998Z,34.90
2018-04-14T05:58:19.879Z,36.05
2018-04-14T05:58:53.764Z,35.00
2018-04-14T05:59:27.633Z,36.60
2018-04-14T06:00:01.508Z,36.72
2018-04-14T06:00:35.398Z,34.95
2018-04-14T06:01:09.262Z,37.20
2018-04-14T06:01:43.148Z,36.35
2018-04-14T06:02:17.014Z,36.45
2018-04-14T06:02:50.888Z,36.50
2018-04-14T06:03:24.756Z,36.75
2018-04-14T06:03:58.617Z,35.75
2018-04-14T06:04:32.502Z,34.22
2018-04-14T06:05:06.409Z,38.50
2018-04-14T06:05:40.302Z,35.60
2018-04-14T06:06:14.200Z,36.28
2018-04-14T06:06:48.076Z,35.70
2018-04-14T06:07:21.936Z,35.90
2018-04-14T06:07:55.803Z,38.35
2018-04-14T06:08:29.668Z,36.28
2018-04-14T06:09:03.544Z,38.00
2018-04-14T06:09:37.406Z,37.45
2018-04-14T06:10:11.283Z,38.17
2018-04-14T06:10:45.212Z,39.63
2018-04-14T06:11:19.081Z,39.83
2018-04-14T06:11:52.957Z,37.70
2018-04-14T06:12:26.827Z,39.20
2018-04-14T06:13:00.709Z,39.28
2018-04-14T06:13:34.570Z,38.60
2018-04-14T06:14:08.431Z,38.10
2018-04-14T06:14:42.321Z,37.95
2018-04-14T06:15:16.174Z,39.50
2018-04-14T06:15:50.049Z,37.58
2018-04-14T06:16:23.921Z,40.45
2018-04-14T06:16:57.805Z,40.20
2018-04-14T06:17:31.688Z,42.05
2018-04-14T06:18:05.556Z,42.92
2018-04-14T06:18:39.461Z,41.88
2018-04-14T06:19:13.415Z,41.20
2018-04-14T06:19:47.314Z,39.92
2018-04-14T06:20:21.175Z,41.63
2018-04-14T06:20:55.076Z,42.75
2018-04-14T06:21:28.956Z,44.17
2018-04-14T06:22:03.046Z,40.65
2018-04-14T06:22:36.865Z,42.72
2018-04-14T06:23:10.724Z,41.08
2018-04-14T06:23:44.592Z,42.47
2018-04-14T06:24:18.465Z,44.08
2018-04-14T06:24:52.332Z,43.38
2018-04-14T06:25:26.241Z,43.65
2018-04-14T06:26:00.149Z,43.90
2018-04-14T06:26:34.051Z,44.30
2018-04-14T06:27:07.921Z,46.58
2018-04-14T06:27:41.799Z,45.85
2018-04-14T06:28:15.692Z,43.87
2018-04-14T06:28:49.543Z,45.45
2018-04-14T06:29:23.450Z,48.47
2018-04-14T06:29:57.343Z,47.13
2018-04-14T06:30:31.216Z,46.10
2018-04-14T06:31:05.106Z,47.20
2018-04-14T06:31:38.976Z,48.53
2018-04-14T06:32:12.862Z,45.47
2018-04-14T06:32:46.736Z,47.97
2018-04-14T06:33:20.624Z,47.22
2018-04-14T06:33:54.519Z,48.53
2018-04-14T06:34:28.400Z,47.88
2018-04-14T06:35:02.284Z,47.28
2018-04-14T06:35:36.191Z,49.70
2018-04-14T06:36:10.147Z,48.92
2018-04-14T06:36:44.107Z,49.63
2018-04-14T06:37:17.971Z,51.20
2018-04-14T06:37:51.902Z,50.45
2018-04-14T06:38:25.780Z,49.97
2018-04-14T06:38:59.652Z,51.80
2018-04-14T06:39:33.641Z,50.33
2018-04-14T06:40:10.227Z,50.85
2018-04-14T06:40:44.090Z,51.20
2018-04-14T06:41:17.969Z,47.75
2018-04-14T06:41:51.840Z,51.22
2018-04-14T06:42:25.710Z,50.25
2018-04-14T06:42:59.583Z,51.42
2018-04-14T06:43:33.446Z,53.00
2018-04-14T06:44:07.363Z,50.80
2018-04-14T06:44:41.190Z,51.13
2018-04-14T06:45:15.105Z,51.40
2018-04-14T06:45:48.966Z,53.40
2018-04-14T06:46:22.864Z,53.00
2018-04-14T06:46:56.812Z,52.45
2018-04-14T06:47:30.751Z,50.03
2018-04-14T06:48:04.623Z,49.78
2018-04-14T06:48:38.515Z,51.58
2018-04-14T06:49:12.390Z,50.38
2018-04-14T06:49:46.394Z,51.28
2018-04-14T06:50:20.268Z,53.05
2018-04-14T06:50:54.159Z,51.80
2018-04-14T06:51:28.097Z,50.78
2018-04-14T06:52:01.973Z,51.40
2018-04-14T06:52:35.856Z,51.65
2018-04-14T06:53:09.725Z,51.37
2018-04-14T06:53:43.621Z,51.95
2018-04-14T06:54:17.529Z,52.60
2018-04-14T06:54:51.462Z,51.78
2018-04-14T06:55:25.347Z,52.95
2018-04-14T06:55:59.270Z,54.15
2018-04-14T06:56:33.204Z,53.00
2018-04-14T06:57:07.093Z,51.55
2018-04-14T06:57:41.833Z,51.88
2018-04-14T06:58:15.884Z,50.00
2018-04-14T06:58:49.773Z,51.70
2018-04-14T06:59:23.740Z,50.40
2018-04-14T06:59:57.627Z,50.75
2018-04-14T07:00:31.507Z,50.38
2018-04-14T07:01:05.383Z,50.90
2018-04-14T07:01:39.561Z,48.92
2018-04-14T07:02:13.461Z,52.40
2018-04-14T07:02:47.332Z,50.75
2018-04-14T07:03:21.196Z,49.80
2018-04-14T07:03:55.064Z,51.60
2018-04-14T07:04:30.329Z,50.55
2018-04-14T07:05:04.212Z,51.00
2018-04-14T07:05:38.081Z,52.40
2018-04-14T07:06:11.952Z,50.58
2018-04-14T07:06:46.036Z,52.33
2018-04-14T07:07:19.946Z,48.90
2018-04-14T07:07:53.811Z,53.53
2018-04-14T07:08:27.684Z,52.60
2018-04-14T07:09:01.558Z,50.78
2018-04-14T07:09:35.448Z,51.35
2018-04-14T07:10:09.339Z,51.80
2018-04-14T07:10:43.381Z,53.90
2018-04-14T07:11:17.348Z,50.78
2018-04-14T07:11:51.260Z,51.85
2018-04-14T07:12:25.169Z,52.75
2018-04-14T07:12:59.108Z,52.67
2018-04-14T07:13:33.026Z,53.15
2018-04-14T07:14:06.899Z,52.75
2018-04-14T07:14:40.796Z,54.78
2018-04-14T07:15:14.755Z,53.20
2018-04-14T07:15:48.663Z,55.75
2018-04-14T07:16:22.613Z,54.10
2018-04-14T07:16:56.526Z,53.72
2018-04-14T07:17:31.083Z,52.28
2018-04-14T07:18:04.982Z,53.87
2018-04-14T07:18:38.875Z,55.75